Time;durP1;ratioP1;P1;durP2;ratioP2;P2;SDS_P1;SDS_P2;PMS_P1;PMS_P2;Temp;Humidity;BMP_temperature;BMP_pressure;BME280_temperature;BME280_humidity;BME280_pressure;Samples;Min_cycle;Max_cycle;Signal;HPM_P1;HPM_P2
2023/06/02 00:02:11;;;;;;;10.60;2.60;;;;;;;11.84;90.38;102021.69;5095022;27;20069;-66
2023/06/02 00:04:37;;;;;;;4.95;2.35;;;;;;;11.81;92.30;102017.25;5100498;27;20382;-67
2023/06/02 00:07:03;;;;;;;7.93;3.13;;;;;;;11.80;92.27;102015.47;5115038;28;20019;-66
2023/06/02 00:09:37;;;;;;;6.78;2.40;;;;;;;11.76;91.73;102014.44;5122188;27;20027;-66
2023/06/02 00:12:02;;;;;;;6.50;2.60;;;;;;;11.72;92.07;102025.50;5095156;27;20078;-67
2023/06/02 00:14:27;;;;;;;3.70;2.40;;;;;;;11.72;92.69;102015.13;5095009;27;20048;-67
2023/06/02 00:16:55;;;;;;;5.63;2.70;;;;;;;11.70;92.60;102006.38;5094778;27;20045;-66
2023/06/02 00:19:20;;;;;;;4.65;2.85;;;;;;;11.71;92.31;102013.34;5095132;27;20016;-67
2023/06/02 00:21:47;;;;;;;7.35;3.15;;;;;;;11.72;93.75;102014.22;5095752;27;20032;-67
2023/06/02 00:24:13;;;;;;;6.95;3.05;;;;;;;11.72;92.89;102015.13;5095605;27;20452;-67
2023/06/02 00:26:38;;;;;;;9.45;3.40;;;;;;;11.70;93.17;102008.97;5095051;27;20039;-66
2023/06/02 00:29:03;;;;;;;6.60;2.83;;;;;;;11.68;92.03;102008.00;5095139;27;20495;-67
2023/06/02 00:31:28;;;;;;;6.90;2.45;;;;;;;11.70;90.52;102010.66;5095035;27;20048;-67
2023/06/02 00:33:54;;;;;;;8.07;2.47;;;;;;;11.68;89.93;102012.31;5095038;27;20031;-66
2023/06/02 00:36:19;;;;;;;4.82;2.60;;;;;;;11.65;91.81;102013.97;5094700;28;20483;-66
2023/06/02 00:38:44;;;;;;;4.05;2.90;;;;;;;11.66;90.84;102014.81;5094926;28;20016;-67
2023/06/02 00:41:09;;;;;;;6.60;3.05;;;;;;;11.63;91.13;102013.00;5095585;27;20023;-67
2023/06/02 00:43:35;;;;;;;5.50;2.50;;;;;;;11.60;90.83;102012.84;5102703;27;20032;-67
2023/06/02 00:46:00;;;;;;;6.07;2.20;;;;;;;11.52;90.36;102007.31;5100968;27;20634;-66
2023/06/02 00:48:26;;;;;;;6.10;2.30;;;;;;;11.53;92.14;102018.59;5095732;27;20424;-66
2023/06/02 00:50:51;;;;;;;10.60;2.63;;;;;;;11.46;91.48;102012.19;5096337;27;20034;-67
2023/06/02 00:53:17;;;;;;;8.50;3.20;;;;;;;11.45;90.46;102013.03;5113605;27;20415;-67
2023/06/02 00:55:43;;;;;;;7.05;2.80;;;;;;;11.39;90.65;102005.84;5110090;27;20383;-66
2023/06/02 00:58:13;;;;;;;7.25;2.72;;;;;;;11.38;89.85;102008.34;5099554;27;20008;-67
2023/06/02 01:00:40;;;;;;;9.82;3.10;;;;;;;11.34;89.01;102014.22;5101158;28;20020;-67
2023/06/02 01:03:07;;;;;;;8.52;2.88;;;;;;;11.30;87.28;102015.75;5099877;27;20047;-67
2023/06/02 01:05:33;;;;;;;7.22;2.78;;;;;;;11.28;88.86;102017.41;5126277;27;20023;-67
2023/06/02 01:08:01;;;;;;;11.43;3.67;;;;;;;11.23;88.15;102017.19;5112827;27;20034;-66
2023/06/02 01:10:27;;;;;;;7.65;2.88;;;;;;;11.20;87.47;102024.81;5126752;27;20019;-66
2023/06/02 01:12:54;;;;;;;9.82;3.28;;;;;;;11.16;88.27;102022.88;5109145;28;20499;-67
2023/06/02 01:15:20;;;;;;;6.53;2.25;;;;;;;11.12;87.42;102016.66;5122082;27;20030;-67
2023/06/02 01:17:46;;;;;;;7.85;2.85;;;;;;;11.07;86.81;102017.25;5110289;28;20015;-67
2023/06/02 01:20:13;;;;;;;7.25;2.85;;;;;;;11.03;86.90;102021.38;5123425;27;20026;-67
2023/06/02 01:23:01;;;;;;;7.13;2.58;;;;;;;11.00;88.26;102016.97;5104993;27;20023;-66
2023/06/02 01:25:27;;;;;;;9.20;3.65;;;;;;;10.97;87.45;102019.41;5111981;27;20130;-68
2023/06/02 01:27:57;;;;;;;8.98;2.85;;;;;;;10.99;87.84;102022.94;5109926;28;20063;-67
2023/06/02 01:30:23;;;;;;;10.35;3.10;;;;;;;10.96;88.06;102017.63;5109123;28;20034;-66
2023/06/02 01:33:06;;;;;;;11.02;3.55;;;;;;;10.98;87.89;102021.19;5104984;28;20510;-67
2023/06/02 01:35:37;;;;;;;13.93;2.55;;;;;;;10.99;87.74;102020.34;5097267;28;20058;-66
2023/06/02 01:38:03;;;;;;;10.68;3.38;;;;;;;11.00;86.71;102016.97;5107235;28;20028;-67
2023/06/02 01:40:30;;;;;;;8.70;2.90;;;;;;;11.00;87.02;102011.78;5097568;28;20120;-66
2023/06/02 01:42:57;;;;;;;7.10;2.42;;;;;;;11.00;88.14;102011.78;5106474;28;20031;-66
2023/06/02 01:45:24;;;;;;;12.13;3.17;;;;;;;10.97;88.21;102011.63;5098262;28;20479;-67
2023/06/02 01:47:49;;;;;;;9.20;2.63;;;;;;;10.97;87.88;102011.63;5107313;28;20032;-67
2023/06/02 01:50:15;;;;;;;7.55;3.70;;;;;;;10.98;87.11;102010.81;5109427;28;20363;-67
2023/06/02 01:52:40;;;;;;;6.93;2.70;;;;;;;11.02;88.13;102006.66;5100295;28;20028;-67
2023/06/02 01:55:06;;;;;;;7.40;2.90;;;;;;;11.04;87.99;102010.22;5096023;28;20032;-66
2023/06/02 01:57:33;;;;;;;8.15;2.63;;;;;;;11.02;89.12;102010.16;5070546;28;20450;-67
2023/06/02 01:59:58;;;;;;;7.38;2.80;;;;;;;10.97;88.66;102001.25;5070440;28;20112;-66
2023/06/02 02:02:24;;;;;;;9.93;3.10;;;;;;;10.98;89.74;102007.31;5069906;28;20103;-66
2023/06/02 02:04:50;;;;;;;9.35;2.75;;;;;;;10.98;89.95;102010.81;5070150;28;20077;-66
2023/06/02 02:07:19;;;;;;;11.43;2.90;;;;;;;11.00;89.57;102011.78;5070873;28;20078;-67
2023/06/02 02:09:45;;;;;;;11.73;2.83;;;;;;;11.00;90.33;102016.97;5089376;28;20275;-67
2023/06/02 02:12:10;;;;;;;11.05;2.83;;;;;;;11.00;90.79;102006.59;5074779;28;20026;-67
2023/06/02 02:14:36;;;;;;;8.52;2.58;;;;;;;11.00;90.26;102010.88;5068760;28;20024;-67
2023/06/02 02:17:02;;;;;;;8.02;2.88;;;;;;;10.96;89.94;102008.94;5072389;28;20422;-66
2023/06/02 02:19:31;;;;;;;7.97;2.63;;;;;;;10.96;90.65;102008.94;5101051;28;20047;-67
2023/06/02 02:21:57;;;;;;;10.45;3.20;;;;;;;10.96;90.07;102009.84;5102141;28;20020;-67
2023/06/02 02:24:22;;;;;;;7.55;3.30;;;;;;;10.98;90.69;102012.50;5093590;28;20096;-68
2023/06/02 02:26:47;;;;;;;9.68;3.13;;;;;;;10.99;91.09;102009.97;5108724;28;20019;-67
2023/06/02 02:29:12;;;;;;;9.45;2.75;;;;;;;11.01;92.09;102008.34;5100195;28;20015;-67
2023/06/02 02:31:38;;;;;;;7.30;2.80;;;;;;;11.01;91.99;102013.53;5084548;28;20519;-66
2023/06/02 02:34:03;;;;;;;11.73;3.05;;;;;;;11.00;90.78;102006.59;5122514;27;20052;-67
2023/06/02 02:36:28;;;;;;;7.60;3.17;;;;;;;11.02;91.23;102009.25;5109042;28;20043;-67
2023/06/02 02:38:54;;;;;;;9.50;2.72;;;;;;;11.03;91.29;102001.53;5122033;27;20896;-67
2023/06/02 02:41:19;;;;;;;9.75;2.45;;;;;;;11.07;92.19;102012.06;5117360;27;20084;-67
2023/06/02 02:43:44;;;;;;;8.70;3.13;;;;;;;11.07;92.16;102004.28;5116821;27;20020;-66
2023/06/02 02:46:09;;;;;;;13.18;3.33;;;;;;;11.05;92.05;101999.00;5100707;27;20023;-66
2023/06/02 02:48:35;;;;;;;6.03;2.70;;;;;;;11.02;91.64;101999.78;5128201;27;20031;-67
2023/06/02 02:51:00;;;;;;;13.25;2.90;;;;;;;11.02;92.42;101998.88;5109360;27;20019;-67
2023/06/02 02:53:31;;;;;;;9.20;3.40;;;;;;;11.00;92.36;101995.31;5106251;28;20103;-67
2023/06/02 02:55:56;;;;;;;8.30;3.35;;;;;;;10.99;93.47;101993.56;5087938;28;20077;-66
2023/06/02 02:58:22;;;;;;;11.07;3.45;;;;;;;10.99;94.36;101990.94;5099116;27;20035;-67
2023/06/02 03:00:47;;;;;;;10.07;3.53;;;;;;;11.00;93.48;101996.22;5104911;27;20028;-66
2023/06/02 03:03:13;;;;;;;9.70;3.35;;;;;;;10.97;93.65;101995.19;5088887;27;20024;-66
2023/06/02 03:05:41;;;;;;;10.02;3.03;;;;;;;10.99;95.48;101988.38;5087786;28;20110;-66
2023/06/02 03:08:09;;;;;;;8.00;3.25;;;;;;;11.02;95.23;101994.59;5088271;28;20040;-66
2023/06/02 03:10:35;;;;;;;9.45;3.65;;;;;;;11.05;94.75;101999.91;5089134;28;20028;-67
2023/06/02 03:13:00;;;;;;;9.20;3.13;;;;;;;11.08;94.60;101998.28;5088512;28;20024;-67
2023/06/02 03:15:27;;;;;;;12.48;3.67;;;;;;;11.04;94.77;102005.91;5088445;28;20403;-65
2023/06/02 03:17:52;;;;;;;9.82;3.45;;;;;;;11.03;94.26;102006.72;5087983;27;20019;-67
2023/06/02 03:20:18;;;;;;;9.55;3.92;;;;;;;11.04;94.23;102012.81;5088521;28;20563;-67
2023/06/02 03:22:44;;;;;;;10.48;3.22;;;;;;;11.02;94.63;102012.75;5088508;28;20055;-67
2023/06/02 03:25:09;;;;;;;9.85;3.65;;;;;;;11.01;94.81;102008.34;5089637;28;20053;-67
2023/06/02 03:27:35;;;;;;;10.27;2.67;;;;;;;11.00;93.45;102011.78;5089111;28;20047;-67
2023/06/02 03:30:01;;;;;;;8.02;3.22;;;;;;;10.96;91.90;102007.25;5086448;28;20034;-66
2023/06/02 03:32:26;;;;;;;8.18;3.22;;;;;;;10.92;90.86;102013.09;5096295;27;20218;-67
2023/06/02 03:34:52;;;;;;;11.43;3.10;;;;;;;10.89;90.97;102008.66;5103404;27;20103;-66
2023/06/02 03:37:17;;;;;;;7.78;2.97;;;;;;;10.86;91.44;102018.88;5086368;28;20028;-67
2023/06/02 03:39:42;;;;;;;8.55;2.60;;;;;;;10.85;91.47;102017.09;5085462;28;20052;-67
2023/06/02 03:42:08;;;;;;;9.30;2.95;;;;;;;10.81;90.06;102021.22;5084852;28;20547;-67
2023/06/02 03:44:33;;;;;;;10.18;3.17;;;;;;;10.79;90.75;102016.78;5109149;27;20026;-68
2023/06/02 03:46:58;;;;;;;7.68;2.90;;;;;;;10.79;91.17;102016.78;5101791;27;20020;-66
2023/06/02 03:49:27;;;;;;;10.82;3.45;;;;;;;10.77;91.36;102019.31;5110374;27;20501;-67
2023/06/02 03:51:53;;;;;;;9.80;3.08;;;;;;;10.74;89.95;102016.53;5094733;28;20019;-66
2023/06/02 03:54:18;;;;;;;7.50;3.05;;;;;;;10.68;90.66;102019.75;5098270;28;20034;-66
2023/06/02 03:56:43;;;;;;;6.80;2.90;;;;;;;10.66;90.82;102021.38;5119803;28;20401;-66
2023/06/02 03:59:08;;;;;;;9.85;2.85;;;;;;;10.67;90.55;102015.34;5127851;28;20019;-66
2023/06/02 04:01:35;;;;;;;11.13;3.50;;;;;;;10.69;89.46;102020.59;5095545;28;20082;-67
2023/06/02 04:04:00;;;;;;;9.52;3.38;;;;;;;10.68;89.65;102024.03;5088185;28;20020;-67
2023/06/02 04:06:25;;;;;;;8.70;2.80;;;;;;;10.71;90.71;102023.28;5091081;28;20042;-67
2023/06/02 04:08:51;;;;;;;10.68;2.83;;;;;;;10.71;90.10;102033.66;5098611;28;20032;-67
2023/06/02 04:11:16;;;;;;;7.90;2.72;;;;;;;10.69;91.38;102033.56;5117450;28;20102;-67
2023/06/02 04:13:42;;;;;;;8.43;3.03;;;;;;;10.66;90.71;102025.66;5108259;28;20031;-67
2023/06/02 04:16:07;;;;;;;8.45;2.85;;;;;;;10.67;92.33;102027.41;5121687;28;20031;-67
2023/06/02 04:18:37;;;;;;;8.70;2.92;;;;;;;10.66;91.72;102029.13;5098510;28;20031;-66
2023/06/02 04:21:03;;;;;;;10.60;3.42;;;;;;;10.68;92.13;102029.22;5095412;28;20531;-66
2023/06/02 04:23:28;;;;;;;10.95;3.63;;;;;;;10.66;92.10;102030.84;5128433;28;20031;-67
2023/06/02 04:25:53;;;;;;;7.88;2.85;;;;;;;10.64;92.69;102032.44;5124040;28;20043;-67
2023/06/02 04:28:19;;;;;;;11.20;2.97;;;;;;;10.63;91.86;102033.28;5118455;28;20118;-66
2023/06/02 04:30:44;;;;;;;13.45;3.75;;;;;;;10.64;91.22;102025.56;5111109;28;20098;-66
2023/06/02 04:33:12;;;;;;;8.38;3.25;;;;;;;10.67;92.49;102030.00;5118961;28;20051;-67
2023/06/02 04:35:37;;;;;;;10.85;3.10;;;;;;;10.65;91.29;102023.88;5123507;28;20474;-66
2023/06/02 04:38:03;;;;;;;10.20;3.90;;;;;;;10.66;90.09;102020.47;5118936;28;20028;-67
2023/06/02 04:40:29;;;;;;;6.40;3.00;;;;;;;10.61;90.58;102021.94;5091015;28;20441;-66
2023/06/02 04:42:54;;;;;;;5.53;2.50;;;;;;;10.54;90.57;102026.78;5086720;28;20028;-67
2023/06/02 04:45:20;;;;;;;6.20;2.65;;;;;;;10.56;91.64;102029.47;5109981;27;20375;-67
2023/06/02 04:47:45;;;;;;;9.65;3.55;;;;;;;10.57;90.11;102031.25;5119048;27;20027;-67
2023/06/02 04:50:13;;;;;;;8.38;3.35;;;;;;;10.54;90.09;102029.38;5109806;28;20191;-67
2023/06/02 04:52:39;;;;;;;8.93;2.85;;;;;;;10.54;92.71;102034.56;5107640;28;20031;-66
2023/06/02 04:55:07;;;;;;;9.25;3.25;;;;;;;10.49;91.74;102042.94;5112445;27;20026;-67
2023/06/02 04:57:32;;;;;;;8.35;3.03;;;;;;;10.52;93.11;102037.91;5130462;27;20027;-66
2023/06/02 04:59:58;;;;;;;9.25;2.78;;;;;;;10.52;91.95;102036.19;5103437;27;20391;-66
2023/06/02 05:02:23;;;;;;;5.28;2.60;;;;;;;10.53;90.93;102040.56;5121945;27;20388;-67
2023/06/02 05:04:48;;;;;;;8.38;2.67;;;;;;;10.53;90.30;102044.84;5097241;27;20043;-67
2023/06/02 05:07:14;;;;;;;7.03;3.10;;;;;;;10.53;90.21;102045.75;5101403;28;20024;-66
2023/06/02 05:09:39;;;;;;;7.40;2.42;;;;;;;10.52;89.92;102038.78;5090222;27;20457;-67
2023/06/02 05:12:05;;;;;;;9.38;2.40;;;;;;;10.55;88.43;102049.31;5099060;28;20075;-66
2023/06/02 05:14:31;;;;;;;6.00;2.42;;;;;;;10.55;88.60;102049.31;5111302;27;20031;-66
2023/06/02 05:16:56;;;;;;;8.52;2.30;;;;;;;10.57;89.62;102054.59;5129513;27;20027;-66
2023/06/02 05:19:22;;;;;;;11.13;2.72;;;;;;;10.57;87.87;102052.91;5128776;27;20018;-67
2023/06/02 05:21:47;;;;;;;7.40;2.35;;;;;;;10.55;87.25;102059.69;5120815;27;20505;-67
2023/06/02 05:24:12;;;;;;;6.03;1.92;;;;;;;10.51;88.72;102052.56;5121899;27;20658;-66
2023/06/02 05:26:38;;;;;;;9.05;2.20;;;;;;;10.54;88.58;102055.31;5119262;27;20242;-67
2023/06/02 05:29:03;;;;;;;10.20;2.90;;;;;;;10.51;88.22;102057.75;5128953;27;20050;-66
2023/06/02 05:31:28;;;;;;;6.55;1.95;;;;;;;10.54;88.26;102059.63;5130300;27;20096;-67
2023/06/02 05:33:53;;;;;;;7.28;2.20;;;;;;;10.52;88.34;102059.50;5124010;27;20426;-66
2023/06/02 05:36:19;;;;;;;7.47;2.38;;;;;;;10.48;88.15;102049.81;5100524;28;20623;-67
2023/06/02 05:38:44;;;;;;;9.68;2.72;;;;;;;10.49;89.52;102049.00;5099447;27;20015;-66
2023/06/02 05:41:10;;;;;;;10.68;3.33;;;;;;;10.50;90.25;102055.97;5131007;27;20085;-67
2023/06/02 05:43:36;;;;;;;8.13;2.42;;;;;;;10.51;88.69;102055.16;5096270;27;20024;-67
2023/06/02 05:46:01;;;;;;;7.18;2.55;;;;;;;10.57;89.04;102049.41;5090329;28;20042;-66
2023/06/02 05:48:27;;;;;;;10.45;3.05;;;;;;;10.61;89.30;102055.63;5093174;28;20348;-67
2023/06/02 05:50:52;;;;;;;8.68;2.38;;;;;;;10.62;88.27;102053.13;5109643;28;20147;-66
2023/06/02 05:53:17;;;;;;;8.07;2.30;;;;;;;10.57;88.31;102058.06;5110390;27;20114;-67
2023/06/02 05:55:43;;;;;;;12.30;2.58;;;;;;;10.56;88.48;102061.47;5098464;28;20126;-67
2023/06/02 05:58:08;;;;;;;9.18;3.10;;;;;;;10.56;87.66;102064.06;5089083;28;20243;-66
2023/06/02 06:00:33;;;;;;;10.63;2.80;;;;;;;10.52;89.40;102064.69;5089877;28;20028;-66
2023/06/02 06:02:59;;;;;;;9.30;2.35;;;;;;;10.55;89.08;102064.88;5089838;28;20069;-67
2023/06/02 06:05:24;;;;;;;7.28;2.55;;;;;;;10.61;89.02;102061.72;5091575;27;20437;-68
2023/06/02 06:07:50;;;;;;;9.15;2.53;;;;;;;10.66;88.88;102061.94;5095836;28;20078;-66
2023/06/02 06:10:15;;;;;;;9.93;2.90;;;;;;;10.75;88.92;102057.22;5092795;28;20077;-67
2023/06/02 06:12:40;;;;;;;10.23;2.42;;;;;;;10.78;88.79;102054.78;5103115;27;20115;-66
2023/06/02 06:15:06;;;;;;;8.23;2.75;;;;;;;10.85;88.36;102055.09;5093917;28;20102;-67
2023/06/02 06:17:31;;;;;;;7.60;2.30;;;;;;;10.90;86.83;102061.41;5095583;27;20032;-67
2023/06/02 06:19:57;;;;;;;11.25;2.30;;;;;;;10.97;86.82;102057.41;5113882;27;20019;-67
2023/06/02 06:22:22;;;;;;;8.38;2.58;;;;;;;11.02;86.46;102058.53;5123530;27;20092;-66
2023/06/02 06:24:47;;;;;;;9.95;2.40;;;;;;;11.05;87.55;102064.75;5116359;27;20051;-67
2023/06/02 06:27:13;;;;;;;10.20;3.38;;;;;;;11.10;87.11;102064.97;5104888;27;20023;-67
2023/06/02 06:29:38;;;;;;;11.20;2.58;;;;;;;11.11;86.33;102060.69;5102880;27;20033;-67
2023/06/02 06:32:06;;;;;;;9.25;2.13;;;;;;;11.13;87.66;102064.25;5119755;27;20096;-67
2023/06/02 06:34:31;;;;;;;10.95;2.38;;;;;;;11.15;89.05;102063.50;5115728;27;20046;-66
2023/06/02 06:36:56;;;;;;;7.95;2.97;;;;;;;11.18;87.11;102073.16;5117768;27;20020;-67
2023/06/02 06:39:22;;;;;;;8.98;3.13;;;;;;;11.15;88.71;102070.41;5115417;27;20030;-66
2023/06/02 06:41:47;;;;;;;7.28;2.58;;;;;;;11.11;87.22;102074.56;5113186;27;20073;-67
2023/06/02 06:44:12;;;;;;;5.03;2.28;;;;;;;11.13;85.46;102075.53;5100152;28;20027;-66
2023/06/02 06:46:38;;;;;;;6.53;2.55;;;;;;;11.12;85.77;102072.84;5092127;27;20122;-66
2023/06/02 06:49:03;;;;;;;7.68;2.50;;;;;;;11.13;84.45;102075.53;5099117;28;20028;-66
2023/06/02 06:51:28;;;;;;;9.07;2.55;;;;;;;11.13;82.89;102069.44;5098643;27;20389;-67
2023/06/02 06:53:54;;;;;;;9.02;2.35;;;;;;;11.08;84.87;102070.94;5103687;27;20023;-67
2023/06/02 06:56:20;;;;;;;7.68;2.88;;;;;;;11.09;83.46;102073.59;5089312;28;20066;-67
2023/06/02 06:58:45;;;;;;;8.90;2.17;;;;;;;11.16;87.37;102069.59;5089030;28;20012;-67
2023/06/02 07:01:12;;;;;;;8.18;2.00;;;;;;;11.17;85.41;102067.06;5088983;28;20541;-67
2023/06/02 07:03:37;;;;;;;8.45;2.63;;;;;;;11.24;86.61;102065.66;5088872;27;20394;-67
2023/06/02 07:06:02;;;;;;;7.75;1.98;;;;;;;11.25;84.93;102069.16;5093403;28;20461;-67
2023/06/02 07:08:29;;;;;;;8.07;2.58;;;;;;;11.32;85.34;102065.13;5099396;27;20106;-67
2023/06/02 07:10:55;;;;;;;7.60;2.00;;;;;;;11.34;84.47;102071.28;5101264;27;20027;-66
2023/06/02 07:13:20;;;;;;;7.13;2.00;;;;;;;11.39;85.42;102062.94;5102738;27;20101;-67
2023/06/02 07:15:45;;;;;;;8.05;2.58;;;;;;;11.51;85.29;102067.81;5099147;28;20313;-67
2023/06/02 07:18:11;;;;;;;11.52;2.90;;;;;;;11.57;83.46;102062.03;5106478;27;20415;-67
2023/06/02 07:20:37;;;;;;;6.57;2.33;;;;;;;11.65;82.45;102070.19;5097063;27;20051;-67
2023/06/02 07:23:02;;;;;;;10.13;2.90;;;;;;;11.69;83.06;102077.31;5103858;27;20011;-67
2023/06/02 07:25:27;;;;;;;4.60;2.05;;;;;;;11.75;82.57;102077.59;5115032;27;20113;-68
2023/06/02 07:27:53;;;;;;;6.60;2.22;;;;;;;11.82;83.39;102077.88;5118359;27;20463;-67
2023/06/02 07:30:19;;;;;;;7.35;1.95;;;;;;;11.90;80.93;102081.72;5102783;27;20027;-67
2023/06/02 07:32:44;;;;;;;11.60;3.00;;;;;;;11.94;81.03;102088.84;5125138;27;20051;-67
2023/06/02 07:35:10;;;;;;;10.30;2.85;;;;;;;11.88;80.02;102088.53;5103239;27;20098;-67
2023/06/02 07:37:35;;;;;;;8.07;2.65;;;;;;;11.88;78.43;102088.53;5098273;28;20144;-67
2023/06/02 07:40:00;;;;;;;7.97;2.03;;;;;;;11.93;80.15;102086.16;5088555;27;20048;-66
2023/06/02 07:42:26;;;;;;;10.65;2.15;;;;;;;12.01;81.24;102090.00;5094283;28;20039;-66
2023/06/02 07:44:51;;;;;;;6.47;2.03;;;;;;;12.12;81.20;102082.75;5088664;28;20389;-67
2023/06/02 07:47:16;;;;;;;9.40;2.30;;;;;;;12.22;79.58;102079.72;5095029;28;20046;-66
2023/06/02 07:49:42;;;;;;;14.02;3.38;;;;;;;12.31;79.74;102073.16;5090726;28;20028;-67
2023/06/02 07:52:07;;;;;;;7.45;2.65;;;;;;;12.36;78.50;102071.66;5100041;28;20031;-67
2023/06/02 07:54:32;;;;;;;8.68;2.80;;;;;;;12.43;80.75;102071.09;5096526;28;20055;-66
2023/06/02 07:56:58;;;;;;;10.38;3.00;;;;;;;12.53;79.17;102068.91;5096781;28;20024;-67
2023/06/02 07:59:23;;;;;;;4.97;2.10;;;;;;;12.61;78.29;102068.41;5105287;28;20051;-66
2023/06/02 08:01:49;;;;;;;8.00;2.28;;;;;;;12.67;79.30;102069.50;5103205;28;20019;-67
2023/06/02 08:04:14;;;;;;;11.02;2.75;;;;;;;12.65;77.49;102074.66;5094596;28;20418;-67
2023/06/02 08:06:40;;;;;;;9.70;2.20;;;;;;;12.70;76.82;102072.25;5101720;28;20031;-66
2023/06/02 08:09:05;;;;;;;8.10;2.15;;;;;;;12.68;74.98;102074.78;5090813;28;20055;-66
2023/06/02 08:11:31;;;;;;;11.88;3.42;;;;;;;12.67;76.11;102061.69;5091051;28;20027;-66
2023/06/02 08:13:56;;;;;;;7.65;2.40;;;;;;;12.71;76.66;102074.03;5074267;28;20452;-67
2023/06/02 08:16:22;;;;;;;7.63;2.40;;;;;;;12.73;77.25;102075.00;5105489;28;20538;-66
2023/06/02 08:18:48;;;;;;;9.75;2.20;;;;;;;12.75;75.80;102069.84;5099668;28;20020;-67
2023/06/02 08:21:13;;;;;;;6.13;2.17;;;;;;;12.75;75.66;102072.44;5096816;28;20036;-68
2023/06/02 08:23:38;;;;;;;9.15;2.50;;;;;;;12.79;76.41;102072.63;5102633;28;20039;-67
2023/06/02 08:26:04;;;;;;;8.18;2.05;;;;;;;12.88;75.72;102077.31;5117878;27;20027;-67
2023/06/02 08:28:29;;;;;;;10.35;2.53;;;;;;;12.96;74.83;102078.56;5091570;27;20050;-67
2023/06/02 08:30:58;;;;;;;8.15;2.40;;;;;;;13.05;74.59;102074.56;5120890;27;20065;-67
2023/06/02 08:33:24;;;;;;;8.05;2.38;;;;;;;13.18;76.33;102068.16;5123668;27;20387;-67
2023/06/02 08:35:51;;;;;;;10.68;2.95;;;;;;;13.31;73.92;102078.22;5096503;27;20441;-67
2023/06/02 08:38:17;;;;;;;10.32;2.85;;;;;;;13.42;69.49;102078.66;5096805;28;20154;-66
2023/06/02 08:40:45;;;;;;;14.80;3.10;;;;;;;13.42;69.10;102075.19;5114594;27;20402;-66
2023/06/02 08:43:13;;;;;;;9.63;2.40;;;;;;;13.46;71.67;102071.84;5112429;27;20076;-67
2023/06/02 08:45:40;;;;;;;7.80;2.13;;;;;;;13.53;70.81;102073.00;5088927;28;20305;-67
2023/06/02 08:48:07;;;;;;;7.15;2.20;;;;;;;13.53;69.96;102075.63;5109933;27;20483;-67
2023/06/02 08:50:35;;;;;;;7.60;2.60;;;;;;;13.55;72.32;102067.03;5095885;28;20031;-67
2023/06/02 08:53:05;;;;;;;7.18;2.30;;;;;;;13.68;72.63;102068.41;5092127;28;20030;-67
2023/06/02 08:55:32;;;;;;;9.80;2.92;;;;;;;13.88;69.37;102070.91;5091631;28;20026;-67
2023/06/02 08:57:57;;;;;;;10.13;3.00;;;;;;;14.29;67.39;102067.16;5097522;27;20116;-67
2023/06/02 09:00:23;;;;;;;7.80;2.00;;;;;;;14.64;63.74;102064.03;5100081;27;20104;-67
2023/06/02 09:02:48;;;;;;;4.22;1.90;;;;;;;14.92;64.04;102069.31;5093546;28;20097;-66
2023/06/02 09:05:17;;;;;;;7.95;2.72;;;;;;;15.02;64.38;102074.00;5109697;27;20032;-67
2023/06/02 09:07:45;;;;;;;11.60;2.80;;;;;;;15.18;65.16;102061.47;5108993;27;20065;-66
2023/06/02 09:10:29;;;;;;;5.75;2.63;;;;;;;15.26;64.08;102070.44;5093254;28;20023;-66
2023/06/02 09:12:55;;;;;;;7.50;2.20;;;;;;;15.27;64.13;102068.72;5101598;28;20391;-67
2023/06/02 09:15:20;;;;;;;8.70;2.50;;;;;;;15.38;65.19;102069.06;5094219;27;20034;-66
2023/06/02 09:17:46;;;;;;;11.00;2.58;;;;;;;15.51;65.68;102071.22;5098105;27;20359;-67
2023/06/02 09:20:11;;;;;;;6.38;2.00;;;;;;;15.50;60.31;102066.84;5104477;27;20022;-67
2023/06/02 09:22:58;;;;;;;7.97;2.50;;;;;;;15.39;63.54;102065.59;5094083;27;20032;-67
2023/06/02 09:25:26;;;;;;;7.32;2.10;;;;;;;15.39;64.70;102058.66;5110943;28;20062;-67
2023/06/02 09:27:53;;;;;;;6.47;2.22;;;;;;;15.56;62.12;102061.78;5098579;28;20031;-67
2023/06/02 09:30:19;;;;;;;6.95;2.50;;;;;;;15.79;64.34;102055.50;5107707;27;20019;-67
2023/06/02 09:33:19;;;;;;;5.25;2.28;;;;;;;16.01;62.27;102058.78;5114012;27;20617;-66
2023/06/02 09:35:45;;;;;;;8.25;2.30;;;;;;;16.12;62.23;102056.47;5024789;28;20076;-67
2023/06/02 09:38:15;;;;;;;8.23;2.88;;;;;;;15.88;58.58;102060.09;5092454;28;20486;-66
2023/06/02 09:40:42;;;;;;;7.97;2.10;;;;;;;15.87;59.90;102051.38;5122335;27;20032;-66
2023/06/02 09:43:12;;;;;;;8.93;2.63;;;;;;;15.91;61.41;102066.31;5104631;28;20058;-67
2023/06/02 09:45:46;;;;;;;5.22;2.38;;;;;;;15.88;59.16;102054.88;5097515;28;20481;-67
2023/06/02 09:48:18;;;;;;;10.18;2.83;;;;;;;15.77;59.26;102057.19;5111302;27;20475;-68
2023/06/02 09:50:44;;;;;;;5.75;2.00;;;;;;;15.82;60.18;102056.47;5098057;27;20578;-66
2023/06/02 09:53:13;;;;;;;8.95;2.30;;;;;;;15.85;62.32;102055.66;5092912;27;20020;-66
2023/06/02 09:55:39;;;;;;;9.88;2.60;;;;;;;16.01;64.00;102051.81;5089702;28;20471;-68
2023/06/02 09:58:06;;;;;;;8.52;2.53;;;;;;;16.16;61.10;102056.59;5095234;27;20086;-66
2023/06/02 10:00:32;;;;;;;7.82;2.65;;;;;;;16.28;61.01;102044.72;5097562;27;20023;-68
2023/06/02 10:02:58;;;;;;;7.10;2.45;;;;;;;16.55;61.99;102041.94;5077395;28;20024;-67
2023/06/02 10:05:24;;;;;;;7.32;2.40;;;;;;;16.53;59.58;102042.75;5092928;28;20558;-67
2023/06/02 10:08:03;;;;;;;6.75;2.47;;;;;;;16.55;61.61;102044.53;5096646;27;20057;-66
2023/06/02 10:10:41;;;;;;;6.72;2.45;;;;;;;16.68;60.79;102044.88;5104816;27;20106;-67
2023/06/02 10:13:42;;;;;;;7.22;2.58;;;;;;;16.76;61.73;102048.59;5116677;27;20132;-67
2023/06/02 10:16:21;;;;;;;;;;;;;;;16.71;60.67;102050.19;5097597;27;20034;-67
2023/06/02 10:18:55;;;;;;;7.28;2.50;;;;;;;16.72;60.41;102036.25;5092544;27;19916;-67
2023/06/02 10:21:55;;;;;;;6.90;2.50;;;;;;;16.92;60.23;102042.00;5104348;27;20491;-66
2023/06/02 10:24:45;;;;;;;9.27;2.70;;;;;;;16.90;58.16;102043.69;5114142;27;20486;-67
2023/06/02 10:27:10;;;;;;;7.30;2.80;;;;;;;16.60;58.91;102042.06;5095936;28;20073;-67
2023/06/02 10:29:36;;;;;;;8.88;3.10;;;;;;;16.46;61.48;102044.28;5094694;27;20036;-66
2023/06/02 10:32:19;;;;;;;12.55;2.70;;;;;;;16.39;63.29;102043.25;5098947;27;20079;-66
2023/06/02 10:34:49;;;;;;;7.88;2.67;;;;;;;16.65;63.38;102034.31;5096259;28;20123;-67
2023/06/02 10:37:15;;;;;;;9.27;2.43;;;;;;;17.05;65.32;102037.94;5095288;27;20028;-67
2023/06/02 10:39:43;;;;;;;7.40;2.40;;;;;;;17.27;63.05;102048.94;5094774;28;20107;-66
2023/06/02 10:42:15;;;;;;;11.13;3.25;;;;;;;17.44;60.73;102045.84;5108533;27;20353;-66
2023/06/02 10:44:40;;;;;;;9.57;2.67;;;;;;;17.36;60.58;102034.31;5102316;27;20038;-67
2023/06/02 10:47:18;;;;;;;5.72;2.22;;;;;;;17.43;59.59;102036.19;5110691;27;20049;-67
2023/06/02 10:50:01;;;;;;;9.98;2.70;;;;;;;17.31;59.32;102031.56;5117998;27;20027;-67
2023/06/02 10:52:32;;;;;;;7.65;2.97;;;;;;;17.36;60.28;102034.31;5091688;28;20043;-66
2023/06/02 10:55:07;;;;;;;;;;;;;;;17.12;59.57;102035.50;5091320;27;20032;-67
2023/06/02 10:57:54;;;;;;;10.13;3.13;;;;;;;16.99;59.56;102040.41;5108976;27;19955;-67
2023/06/02 11:00:32;;;;;;;9.52;3.00;;;;;;;17.03;63.96;102039.66;5101138;27;20102;-67
2023/06/02 11:03:00;;;;;;;8.35;3.17;;;;;;;17.14;61.04;102039.03;5113637;27;20032;-66
2023/06/02 11:05:30;;;;;;;6.88;2.78;;;;;;;17.47;62.69;102040.66;5125180;27;20019;-66
2023/06/02 11:08:11;;;;;;;9.18;2.53;;;;;;;17.74;59.54;102034.25;5112611;27;20568;-67
2023/06/02 11:11:08;;;;;;;6.82;3.13;;;;;;;17.77;60.03;102029.06;5109839;27;20028;-66
2023/06/02 11:13:57;;;;;;;6.20;2.70;;;;;;;17.90;59.42;102031.94;5069528;27;20038;-67
2023/06/02 11:16:26;;;;;;;6.70;2.95;;;;;;;17.73;58.49;102032.50;5116672;27;20404;-67
2023/06/02 11:18:51;;;;;;;4.80;2.42;;;;;;;17.73;60.20;102035.13;5089539;27;20028;-66
2023/06/02 11:21:19;;;;;;;5.30;1.92;;;;;;;18.02;62.11;102031.31;5094437;28;20080;-67
2023/06/02 11:23:45;;;;;;;12.02;3.17;;;;;;;18.12;59.78;102020.16;5099784;27;20024;-67
2023/06/02 11:26:14;;;;;;;7.95;2.72;;;;;;;17.95;59.26;102030.28;5104343;27;20485;-66